Time;durP1;ratioP1;P1;durP2;ratioP2;P2;SDS_P1;SDS_P2;PMS_P1;PMS_P2;Temp;Humidity;BMP_temperature;BMP_pressure;BME280_temperature;BME280_humidity;BME280_pressure;Samples;Min_cycle;Max_cycle;Signal;HPM_P1;HPM_P2
2022/08/11 00:01:54;;;;;;;12.65;4.90;;;16.20;95.70;;;;;;6334994;22;19999;-76
2022/08/11 00:04:25;;;;;;;8.55;3.75;;;16.20;95.60;;;;;;6334036;22;20003;-75
2022/08/11 00:06:52;;;;;;;11.70;3.95;;;16.20;95.60;;;;;;6333959;22;19998;-75
2022/08/11 00:09:30;;;;;;;8.75;4.07;;;16.20;95.60;;;;;;6335160;22;20067;-75
2022/08/11 00:11:58;;;;;;;26.50;5.35;;;16.20;95.60;;;;;;6333318;22;20037;-75
2022/08/11 00:14:33;;;;;;;12.32;4.35;;;16.20;95.60;;;;;;6335914;22;20006;-75
2022/08/11 00:17:08;;;;;;;18.42;4.35;;;16.20;95.70;;;;;;6333960;22;20399;-74
2022/08/11 00:19:44;;;;;;;22.48;5.75;;;16.20;96.00;;;;;;6334725;22;19995;-75
2022/08/11 00:22:19;;;;;;;17.00;4.57;;;16.20;95.70;;;;;;6335034;22;20026;-75
2022/08/11 00:24:47;;;;;;;13.80;3.72;;;16.20;95.80;;;;;;6333765;22;20669;-74
2022/08/11 00:27:13;;;;;;;9.73;4.18;;;16.20;95.70;;;;;;6335119;22;20002;-75
2022/08/11 00:29:40;;;;;;;16.27;5.82;;;16.20;95.70;;;;;;6333476;22;20026;-75
2022/08/11 00:32:13;;;;;;;16.15;5.78;;;16.20;95.70;;;;;;6334886;22;20253;-75
2022/08/11 00:34:43;;;;;;;10.57;3.70;;;16.20;95.60;;;;;;6334419;22;20029;-76
2022/08/11 00:37:17;;;;;;;12.32;4.20;;;16.20;95.70;;;;;;6334672;22;19991;-76
2022/08/11 00:39:47;;;;;;;8.93;5.07;;;16.20;96.00;;;;;;6334780;22;20029;-75
2022/08/11 00:42:43;;;;;;;10.85;3.75;;;16.20;95.60;;;;;;6333751;22;20002;-75
2022/08/11 00:45:26;;;;;;;17.73;4.38;;;16.20;95.60;;;;;;6334862;22;20009;-75
2022/08/11 00:48:10;;;;;;;9.57;3.03;;;16.20;95.60;;;;;;6334136;22;20422;-75
2022/08/11 00:51:09;;;;;;;17.58;3.63;;;16.20;95.60;;;;;;6332766;22;20046;-76
2022/08/11 00:53:56;;;;;;;5.65;3.42;;;16.20;95.50;;;;;;6335001;22;20007;-76
2022/08/11 00:57:02;;;;;;;8.60;3.05;;;16.20;95.50;;;;;;6270724;22;20034;-75
2022/08/11 01:00:03;;;;;;;9.55;3.17;;;16.20;95.40;;;;;;6333669;22;19999;-76
2022/08/11 01:03:06;;;;;;;6.25;2.58;;;16.10;95.40;;;;;;6334912;22;20014;-76
2022/08/11 01:06:08;;;;;;;9.98;4.00;;;16.10;95.40;;;;;;6334939;22;20103;-76
2022/08/11 01:09:24;;;;;;;5.45;2.05;;;16.10;95.30;;;;;;6222243;22;20008;-75
2022/08/11 01:12:50;;;;;;;3.70;1.83;;;16.10;95.40;;;;;;6333991;22;20011;-76
2022/08/11 01:15:39;;;;;;;8.68;2.00;;;16.10;95.40;;;;;;6265902;22;20330;-76
2022/08/11 01:18:29;;;;;;;7.65;2.17;;;16.10;95.40;;;;;;6334511;22;20010;-76
2022/08/11 01:21:01;;;;;;;4.80;1.38;;;16.10;95.40;;;;;;6333412;22;20498;-76
2022/08/11 01:24:05;;;;;;;6.88;1.90;;;16.10;95.40;;;;;;6332869;22;20007;-76
2022/08/11 01:26:59;;;;;;;3.38;1.75;;;16.10;95.30;;;;;;6332033;22;20045;-77
2022/08/11 01:30:02;;;;;;;5.25;1.58;;;16.10;95.30;;;;;;6334030;22;20121;-77
2022/08/11 01:32:35;;;;;;;4.68;1.75;;;16.10;95.20;;;;;;6333232;22;20307;-76
2022/08/11 01:35:01;;;;;;;2.90;1.50;;;16.00;95.20;;;;;;6333931;22;20361;-75
2022/08/11 01:38:00;;;;;;;8.77;2.30;;;16.00;95.20;;;;;;6334526;22;20441;-76
2022/08/11 01:40:50;;;;;;;2.97;1.58;;;16.00;95.20;;;;;;6284467;22;20121;-74
2022/08/11 01:46:45;;;;;;;6.47;2.00;;;16.00;95.10;;;;;;6333822;22;20053;-75
2022/08/11 01:49:30;;;;;;;4.35;2.95;;;16.00;95.10;;;;;;6334284;22;20035;-75
2022/08/11 01:52:18;;;;;;;3.47;3.03;;;16.00;95.10;;;;;;6333186;22;20486;-73
2022/08/11 01:55:25;;;;;;;7.90;3.55;;;16.00;95.00;;;;;;6334296;22;20007;-75
2022/08/11 01:58:10;;;;;;;6.07;4.32;;;16.00;95.00;;;;;;6334301;22;20003;-75
2022/08/11 02:01:01;;;;;;;6.05;4.88;;;16.00;94.90;;;;;;6333195;22;19999;-75
2022/08/11 02:03:43;;;;;;;6.18;4.45;;;16.00;94.90;;;;;;6334147;22;20330;-77
2022/08/11 02:09:53;;;;;;;5.88;5.28;;;16.00;94.90;;;;;;6334740;22;20518;-76
2022/08/11 02:12:41;;;;;;;7.55;5.50;;;16.00;94.90;;;;;;6335283;22;20003;-75
2022/08/11 02:15:25;;;;;;;4.80;4.35;;;16.00;94.80;;;;;;6336261;22;20002;-77
2022/08/11 02:18:07;;;;;;;11.02;4.45;;;16.00;94.80;;;;;;6335760;22;19998;-76
2022/08/11 02:24:05;;;;;;;6.30;4.55;;;16.00;94.90;;;;;;6336056;22;20013;-76
2022/08/11 02:26:55;;;;;;;4.07;3.67;;;16.00;94.80;;;;;;6334477;22;20370;-75
2022/08/11 02:29:38;;;;;;;4.07;3.38;;;16.00;94.80;;;;;;6336092;22;20045;-76
2022/08/11 02:35:28;;;;;;;9.43;3.80;;;16.00;94.80;;;;;;6209146;23;20067;-78
2022/08/11 02:38:42;;;;;;;3.72;2.22;;;16.00;95.00;;;;;;6328890;22;20022;-76
2022/08/11 02:44:27;;;;;;;4.45;2.10;;;16.00;94.70;;;;;;6335176;22;20009;-76
2022/08/11 02:46:56;;;;;;;3.80;1.98;;;16.00;94.70;;;;;;6334951;22;20014;-76
2022/08/11 02:50:07;;;;;;;4.85;2.28;;;16.00;94.70;;;;;;6333859;22;20078;-76
2022/08/11 02:52:46;;;;;;;3.70;1.83;;;16.00;94.80;;;;;;6328568;22;20003;-77
2022/08/11 02:55:52;;;;;;;3.42;1.73;;;16.00;94.80;;;;;;6335403;22;20070;-76
2022/08/11 02:58:37;;;;;;;5.05;1.70;;;16.00;94.80;;;;;;6335581;22;20006;-76
2022/08/11 03:01:19;;;;;;;3.55;1.30;;;16.00;94.70;;;;;;6334626;22;20025;-75
2022/08/11 03:04:10;;;;;;;2.50;1.13;;;16.00;94.80;;;;;;6335753;22;19995;-74
2022/08/11 03:06:49;;;;;;;0.80;0.80;;;16.00;94.80;;;;;;6335450;22;20025;-75
2022/08/11 03:09:29;;;;;;;3.65;1.40;;;15.90;94.70;;;;;;6334329;22;20011;-75
2022/08/11 03:18:17;;;;;;;1.67;1.15;;;15.90;94.60;;;;;;6333994;22;20401;-74
2022/08/11 03:21:17;;;;;;;1.60;1.00;;;15.90;94.60;;;;;;6335660;22;20026;-74
2022/08/11 03:24:01;;;;;;;2.53;1.27;;;15.90;94.50;;;;;;6335512;22;19999;-74
2022/08/11 03:26:30;;;;;;;4.82;1.15;;;15.90;94.50;;;;;;6334028;22;20014;-73
2022/08/11 03:29:30;;;;;;;2.75;1.17;;;15.90;94.40;;;;;;6335183;22;20002;-74
2022/08/11 03:32:05;;;;;;;2.80;1.67;;;15.90;94.40;;;;;;6335143;22;20003;-72
2022/08/11 03:34:36;;;;;;;6.85;1.92;;;15.80;94.30;;;;;;6334708;22;20419;-73
2022/08/11 03:37:50;;;;;;;3.25;1.40;;;15.80;94.30;;;;;;6335654;22;20075;-74
2022/08/11 03:44:27;;;;;;;5.53;1.77;;;15.80;94.30;;;;;;6333261;22;20021;-73
2022/08/11 03:47:15;;;;;;;4.28;1.25;;;15.80;94.40;;;;;;6208654;23;20008;-73
2022/08/11 03:50:13;;;;;;;4.13;1.60;;;15.80;94.40;;;;;;6335187;22;20043;-72
2022/08/11 03:52:58;;;;;;;4.85;1.52;;;15.80;94.20;;;;;;6283817;22;20081;-73
2022/08/11 03:55:50;;;;;;;34.80;10.70;;;15.80;94.10;;;;;;6333298;22;20030;-73
2022/08/11 03:58:53;;;;;;;87.30;35.20;;;15.70;94.00;;;;;;6335526;22;20257;-72
2022/08/11 04:01:53;;;;;;;73.32;36.22;;;15.70;93.90;;;;;;6333584;22;20003;-74
2022/08/11 04:05:06;;;;;;;69.25;44.88;;;15.70;94.00;;;;;;6334977;22;20065;-73
2022/08/11 04:07:57;;;;;;;22.55;14.23;;;15.80;93.90;;;;;;6335232;22;20085;-73
2022/08/11 04:10:46;;;;;;;12.68;8.38;;;15.70;93.90;;;;;;6333418;22;20071;-76
2022/08/11 04:13:41;;;;;;;13.60;7.82;;;15.70;94.10;;;;;;6332540;22;20118;-76
2022/08/11 04:16:28;;;;;;;16.25;7.70;;;15.70;94.10;;;;;;6335160;22;20465;-75
2022/08/11 04:19:33;;;;;;;11.07;6.05;;;15.60;93.90;;;;;;6333418;22;20501;-73
2022/08/11 04:22:26;;;;;;;10.88;5.03;;;15.60;93.80;;;;;;6270201;22;20083;-71
2022/08/11 04:25:21;;;;;;;12.85;5.53;;;15.60;93.80;;;;;;6333583;22;20015;-71
2022/08/11 04:28:12;;;;;;;31.48;18.88;;;15.60;93.80;;;;;;6334519;22;20056;-72
2022/08/11 04:31:08;;;;;;;33.08;24.95;;;15.60;93.90;;;;;;6333183;22;20011;-72
2022/08/11 04:33:48;;;;;;;21.52;13.93;;;15.60;93.90;;;;;;6334968;22;20067;-74
2022/08/11 04:37:30;;;;;;;12.88;8.52;;;15.50;93.80;;;;;;6333284;22;20010;-74
2022/08/11 04:39:42;;;;;;;8.70;6.22;;;15.50;93.70;;;;;;6333605;22;20006;-74
2022/08/11 04:45:43;;;;;;;13.30;4.13;;;15.60;93.60;;;;;;6334504;22;20059;-73
2022/08/11 05:01:40;;;;;;;2.20;1.85;;;15.50;93.70;;;;;;6249753;22;20009;-72
2022/08/11 05:07:14;;;;;;;3.50;2.58;;;15.50;93.80;;;;;;6334131;22;20080;-74
2022/08/11 05:10:17;;;;;;;7.38;2.25;;;15.50;93.80;;;;;;6333712;22;20078;-73
2022/08/11 05:36:49;;;;;;;1.70;1.10;;;15.50;93.70;;;;;;6333416;22;20026;-76
2022/08/11 05:57:14;;;;;;;13.65;3.58;;;15.50;94.00;;;;;;6335931;22;20475;-73
2022/08/11 06:00:23;;;;;;;4.15;2.83;;;15.50;93.90;;;;;;6335951;22;20002;-72
2022/08/11 06:06:51;;;;;;;7.05;3.17;;;15.50;93.70;;;;;;6335142;22;20025;-72
2022/08/11 06:10:06;;;;;;;6.60;2.90;;;15.50;93.70;;;;;;6336128;22;20315;-73
2022/08/11 06:12:36;;;;;;;4.55;2.80;;;15.50;93.70;;;;;;6336366;22;20013;-73
2022/08/11 06:15:09;;;;;;;10.80;3.83;;;15.50;93.70;;;;;;6333306;22;20373;-74
2022/08/11 06:17:45;;;;;;;8.82;3.55;;;15.50;93.60;;;;;;6336506;22;19998;-74
2022/08/11 06:20:14;;;;;;;9.10;4.65;;;15.40;93.70;;;;;;6335184;22;20005;-75
2022/08/11 06:22:47;;;;;;;14.57;5.13;;;15.50;93.80;;;;;;6336022;22;19995;-74
2022/08/11 06:25:15;;;;;;;5.85;3.60;;;15.50;93.90;;;;;;6336117;22;20376;-73
2022/08/11 06:27:44;;;;;;;6.82;3.00;;;15.50;93.90;;;;;;6335107;22;20323;-73
2022/08/11 06:30:14;;;;;;;9.70;4.55;;;15.50;93.90;;;;;;6336224;22;20014;-73
2022/08/11 06:32:45;;;;;;;9.25;3.58;;;15.50;93.90;;;;;;6334708;22;20436;-74
2022/08/11 06:35:44;;;;;;;6.68;3.65;;;15.50;94.00;;;;;;6336353;22;19999;-74
2022/08/11 06:38:38;;;;;;;5.55;3.38;;;15.50;93.90;;;;;;6268350;22;20525;-73
2022/08/11 06:41:29;;;;;;;4.00;2.08;;;15.50;93.90;;;;;;6334978;22;19999;-73
2022/08/11 06:44:15;;;;;;;7.32;2.75;;;15.50;94.10;;;;;;6335706;22;20364;-72
2022/08/11 06:46:53;;;;;;;5.15;2.17;;;15.60;94.30;;;;;;6335829;22;20003;-72
2022/08/11 06:52:18;;;;;;;5.60;2.42;;;15.60;94.30;;;;;;6335890;22;20013;-72
2022/08/11 06:55:05;;;;;;;7.57;2.53;;;15.50;94.40;;;;;;6335146;22;20006;-74
2022/08/11 07:00:28;;;;;;;1.80;1.10;;;15.60;94.50;;;;;;6336004;22;20516;-74
2022/08/11 07:03:11;;;;;;;2.22;1.52;;;15.60;94.60;;;;;;6334733;22;19998;-72
2022/08/11 07:05:44;;;;;;;3.50;1.80;;;15.60;94.60;;;;;;6335525;22;19999;-72
2022/08/11 07:17:22;;;;;;;4.18;1.25;;;15.70;94.70;;;;;;6335753;22;20307;-71
2022/08/11 07:31:28;;;;;;;3.85;2.05;;;15.70;94.80;;;;;;6335571;22;20021;-73
2022/08/11 07:34:19;;;;;;;11.70;2.03;;;15.80;94.80;;;;;;6334892;22;19999;-72
2022/08/11 07:37:02;;;;;;;1.85;1.42;;;15.70;94.70;;;;;;6312691;22;20086;-73
2022/08/11 07:39:32;;;;;;;5.30;1.33;;;15.70;94.80;;;;;;6334466;22;19999;-73
2022/08/11 07:42:04;;;;;;;4.38;1.40;;;15.70;94.70;;;;;;6334462;22;20064;-74
2022/08/11 07:48:10;;;;;;;2.30;1.70;;;15.70;94.70;;;;;;6335639;22;20048;-73
2022/08/11 07:52:48;;;;;;;;;;;15.80;94.90;;;;;;6336178;22;20009;-73
2022/08/11 07:55:17;;;;;;;1.52;0.80;;;15.80;94.90;;;;;;6334618;22;19905;-74
2022/08/11 08:19:56;;;;;;;2.50;1.90;;;16.10;95.10;;;;;;6333933;22;20047;-73
2022/08/11 08:22:22;;;;;;;2.25;1.98;;;16.20;95.10;;;;;;6335107;22;20112;-73
2022/08/11 08:24:50;;;;;;;4.72;1.60;;;16.20;95.10;;;;;;6333879;22;20025;-72
2022/08/11 08:27:19;;;;;;;2.90;1.77;;;16.20;95.00;;;;;;6334965;22;20007;-71
2022/08/11 08:32:33;;;;;;;10.35;1.77;;;16.30;95.00;;;;;;6334105;22;20052;-73
2022/08/11 08:35:02;;;;;;;5.93;1.92;;;16.30;94.90;;;;;;6335247;22;20025;-76
2022/08/11 08:37:28;;;;;;;4.05;2.97;;;16.40;94.90;;;;;;6333331;22;20002;-73
2022/08/11 08:39:57;;;;;;;4.60;3.40;;;16.40;94.90;;;;;;6336212;22;19995;-74
2022/08/11 08:42:30;;;;;;;3.83;3.05;;;16.40;94.80;;;;;;6333525;22;20003;-73
2022/08/11 08:45:09;;;;;;;6.57;2.83;;;16.40;94.80;;;;;;6335555;22;20425;-72
2022/08/11 08:47:38;;;;;;;13.35;2.25;;;16.40;94.80;;;;;;6334781;22;19995;-75
2022/08/11 08:50:10;;;;;;;4.60;1.58;;;16.40;94.70;;;;;;6333640;22;20015;-72
2022/08/11 08:52:42;;;;;;;1.50;1.40;;;16.50;94.70;;;;;;6335095;22;20048;-74
2022/08/11 08:55:16;;;;;;;1.48;1.38;;;16.50;94.70;;;;;;6333664;22;20060;-73
2022/08/11 08:57:44;;;;;;;1.90;1.25;;;16.50;94.60;;;;;;6331795;22;20010;-72
2022/08/11 09:00:13;;;;;;;4.25;1.23;;;16.50;94.60;;;;;;6334447;22;19998;-74
2022/08/11 09:02:40;;;;;;;4.43;1.55;;;16.60;94.60;;;;;;6333640;22;20326;-74
2022/08/11 09:05:08;;;;;;;1.98;0.90;;;16.60;94.60;;;;;;6334652;22;20002;-72
2022/08/11 09:07:36;;;;;;;2.38;1.63;;;16.70;94.70;;;;;;6333579;22;20076;-72
2022/08/11 09:10:04;;;;;;;2.70;1.20;;;16.70;94.70;;;;;;6334511;22;20473;-74
2022/08/11 09:12:33;;;;;;;3.42;1.30;;;16.80;94.70;;;;;;6333544;22;20491;-75
2022/08/11 09:15:03;;;;;;;1.10;1.00;;;16.80;94.60;;;;;;6335305;22;20013;-73
2022/08/11 09:17:43;;;;;;;3.63;0.90;;;16.80;94.50;;;;;;6334635;22;20006;-74
2022/08/11 09:20:19;;;;;;;5.25;0.90;;;16.90;94.40;;;;;;6333930;22;20345;-72
2022/08/11 09:28:21;;;;;;;2.65;0.80;;;16.90;93.80;;;;;;6335845;22;20013;-76
2022/08/11 09:30:54;;;;;;;3.22;0.88;;;16.90;93.60;;;;;;6336818;22;20014;-73
2022/08/11 09:33:23;;;;;;;3.97;0.73;;;16.90;93.20;;;;;;6335936;22;20089;-74
2022/08/11 09:35:51;;;;;;;2.85;0.77;;;16.90;92.80;;;;;;6336378;22;20002;-74
2022/08/11 09:41:09;;;;;;;1.70;0.88;;;17.00;92.70;;;;;;6336237;22;20013;-73
2022/08/11 09:46:34;;;;;;;4.72;0.80;;;17.10;92.50;;;;;;6335318;22;20013;-72
2022/08/11 09:49:03;;;;;;;5.05;1.10;;;17.10;92.20;;;;;;6336851;22;19999;-71
2022/08/11 09:51:32;;;;;;;2.53;1.50;;;17.20;91.90;;;;;;6334810;22;20067;-73
2022/08/11 09:54:07;;;;;;;1.42;0.95;;;17.20;91.80;;;;;;6335765;22;20337;-72
2022/08/11 09:59:21;;;;;;;4.53;1.45;;;17.20;91.40;;;;;;6334837;22;20015;-72
2022/08/11 10:01:54;;;;;;;2.17;0.60;;;17.30;91.20;;;;;;6336321;22;19995;-72
2022/08/11 10:04:34;;;;;;;2.67;0.77;;;17.40;90.90;;;;;;6335700;22;20446;-72
2022/08/11 10:07:08;;;;;;;2.63;0.80;;;17.40;90.60;;;;;;6336258;22;20460;-74
2022/08/11 10:10:00;;;;;;;5.32;0.93;;;17.40;90.00;;;;;;6335299;22;20006;-72
2022/08/11 10:12:34;;;;;;;4.10;1.33;;;17.50;88.50;;;;;;6335179;22;20003;-72
2022/08/11 10:15:37;;;;;;;2.47;1.10;;;17.50;88.20;;;;;;6336295;22;20307;-72
2022/08/11 10:21:14;;;;;;;5.07;1.23;;;17.60;87.10;;;;;;6335093;22;20006;-72
2022/08/11 10:34:47;;;;;;;1.25;0.60;;;17.70;86.20;;;;;;6334951;22;20006;-72
2022/08/11 10:37:19;;;;;;;3.72;1.25;;;17.70;86.20;;;;;;6335884;22;20052;-73
2022/08/11 10:39:46;;;;;;;3.25;1.13;;;17.70;86.50;;;;;;6336150;22;20026;-75
2022/08/11 10:48:03;;;;;;;6.03;1.60;;;17.80;86.90;;;;;;6330457;22;20009;-72
2022/08/11 10:58:48;;;;;;;6.32;2.05;;;17.90;86.70;;;;;;6336170;22;20037;-72
2022/08/11 11:01:22;;;;;;;6.97;2.03;;;17.90;86.60;;;;;;6335190;22;19995;-73
2022/08/11 11:04:01;;;;;;;3.97;1.05;;;18.00;86.70;;;;;;6335095;22;20095;-72
2022/08/11 11:06:49;;;;;;;6.63;2.08;;;18.00;86.40;;;;;;6335261;22;20430;-74
2022/08/11 11:09:31;;;;;;;2.90;1.05;;;18.00;86.20;;;;;;6334263;22;20006;-73
2022/08/11 11:17:55;;;;;;;9.23;1.38;;;18.00;85.70;;;;;;6334681;22;20009;-73
2022/08/11 11:20:39;;;;;;;5.85;2.15;;;18.00;85.50;;;;;;6335413;22;19991;-72
2022/08/11 11:23:18;;;;;;;2.93;1.60;;;18.00;85.60;;;;;;6335860;22;19999;-74
2022/08/11 11:26:09;;;;;;;1.60;0.75;;;18.00;85.80;;;;;;6334976;22;20116;-72
2022/08/11 11:28:48;;;;;;;10.07;2.28;;;18.10;85.80;;;;;;6335656;22;20009;-75
2022/08/11 11:31:48;;;;;;;4.45;1.00;;;18.10;86.00;;;;;;6334355;22;20011;-76
2022/08/11 11:34:26;;;;;;;10.55;1.95;;;18.20;86.10;;;;;;6334284;22;20361;-73
2022/08/11 11:36:59;;;;;;;3.65;1.40;;;18.20;86.00;;;;;;6335288;22;20003;-72
2022/08/11 11:39:29;;;;;;;9.73;2.38;;;18.20;85.80;;;;;;6333717;22;20338;-74
2022/08/11 11:42:01;;;;;;;14.95;1.88;;;18.10;85.60;;;;;;6335444;22;20140;-74
2022/08/11 11:44:29;;;;;;;17.45;3.15;;;18.10;85.50;;;;;;6334974;22;20006;-72
2022/08/11 11:46:56;;;;;;;10.05;2.35;;;18.10;86.00;;;;;;6334371;22;20056;-71
2022/08/11 11:49:25;;;;;;;5.70;2.17;;;18.10;86.00;;;;;;6334835;22;20026;-72
2022/08/11 11:51:52;;;;;;;5.95;1.55;;;18.10;85.90;;;;;;6334165;22;20006;-73
2022/08/11 11:54:27;;;;;;;8.60;2.45;;;18.00;85.60;;;;;;6335015;22;20084;-74
2022/08/11 11:56:55;;;;;;;6.63;1.70;;;18.00;85.60;;;;;;6334901;22;20005;-73
2022/08/11 12:02:14;;;;;;;7.72;2.13;;;18.00;85.70;;;;;;6335222;22;20005;-73
2022/08/11 12:04:43;;;;;;;9.35;2.75;;;17.90;85.50;;;;;;6333744;22;20505;-73
2022/08/11 12:09:57;;;;;;;7.45;2.17;;;17.90;85.50;;;;;;6334509;22;20017;-75
2022/08/11 12:15:11;;;;;;;7.32;2.72;;;17.90;85.60;;;;;;6335418;22;20089;-72
2022/08/11 12:17:38;;;;;;;6.03;2.00;;;18.00;85.50;;;;;;6334002;22;20006;-72
2022/08/11 12:20:06;;;;;;;6.18;1.65;;;18.00;85.40;;;;;;6334925;22;19994;-75
2022/08/11 12:28:05;;;;;;;9.52;2.05;;;18.10;85.10;;;;;;6335570;22;20010;-73
2022/08/11 12:30:31;;;;;;;11.52;2.95;;;18.10;84.90;;;;;;6333258;22;20018;-74
2022/08/11 12:32:58;;;;;;;5.50;2.28;;;18.10;84.60;;;;;;6335233;22;20005;-72
2022/08/11 12:35:25;;;;;;;8.07;1.63;;;18.10;84.60;;;;;;6333710;22;19999;-72
2022/08/11 12:37:56;;;;;;;5.88;2.10;;;18.10;84.30;;;;;;6335178;22;20082;-75
2022/08/11 12:46:03;;;;;;;6.88;1.80;;;18.00;83.70;;;;;;6334685;22;20452;-72
2022/08/11 12:54:21;;;;;;;6.85;2.65;;;18.00;83.70;;;;;;6335249;22;20473;-73
2022/08/11 13:05:16;;;;;;;4.65;1.20;;;17.90;83.90;;;;;;6333648;22;20005;-73
2022/08/11 13:07:44;;;;;;;7.35;1.90;;;17.90;84.00;;;;;;6334967;22;20007;-72
2022/08/11 13:10:14;;;;;;;4.93;2.08;;;17.90;83.90;;;;;;6331528;22;20346;-74
2022/08/11 13:12:48;;;;;;;4.93;1.70;;;17.90;83.90;;;;;;6335150;22;20056;-72
2022/08/11 13:15:23;;;;;;;7.88;2.25;;;17.90;84.00;;;;;;6332847;22;20006;-74
2022/08/11 13:17:52;;;;;;;7.80;1.75;;;17.90;84.20;;;;;;6333329;22;20078;-72
2022/08/11 13:20:22;;;;;;;6.00;2.20;;;17.90;84.20;;;;;;6334757;22;19998;-75
2022/08/11 13:22:53;;;;;;;6.82;1.58;;;17.90;84.40;;;;;;6333749;22;20095;-72
2022/08/11 13:25:23;;;;;;;4.32;1.38;;;17.80;84.40;;;;;;6334104;22;20429;-72
2022/08/11 13:27:52;;;;;;;7.10;1.65;;;17.80;84.30;;;;;;6332212;22;20372;-74
2022/08/11 13:33:08;;;;;;;6.45;1.75;;;17.80;84.10;;;;;;6334807;22;20010;-72
2022/08/11 13:35:35;;;;;;;3.20;1.08;;;17.80;84.00;;;;;;6333473;22;20013;-72
2022/08/11 13:38:04;;;;;;;4.03;1.83;;;17.80;84.00;;;;;;6335013;22;19998;-72
2022/08/11 13:40:32;;;;;;;4.53;2.00;;;17.80;84.00;;;;;;6332343;22;20391;-72
2022/08/11 13:42:59;;;;;;;8.90;1.35;;;17.80;84.10;;;;;;6334458;22;20082;-73
2022/08/11 13:45:26;;;;;;;7.40;1.50;;;17.80;84.20;;;;;;6333385;22;20010;-72
2022/08/11 13:47:56;;;;;;;4.35;1.33;;;17.80;84.20;;;;;;6333836;22;19991;-73
2022/08/11 13:53:14;;;;;;;4.35;1.90;;;17.70;84.10;;;;;;6333563;22;20457;-73
2022/08/11 13:55:42;;;;;;;11.70;1.95;;;17.70;84.00;;;;;;6334601;22;19994;-72
2022/08/11 13:58:13;;;;;;;13.05;2.58;;;17.70;84.20;;;;;;6333806;22;20438;-72
2022/08/11 14:00:44;;;;;;;13.60;3.78;;;17.70;84.30;;;;;;6333992;22;20048;-72
2022/08/11 14:03:13;;;;;;;14.70;3.10;;;17.70;84.80;;;;;;6332832;22;20009;-72
2022/08/11 14:05:55;;;;;;;12.75;2.47;;;17.70;85.40;;;;;;6334972;22;19999;-71
2022/08/11 14:08:26;;;;;;;5.30;1.25;;;17.70;85.80;;;;;;6334112;22;20029;-75
2022/08/11 14:13:45;;;;;;;10.00;1.95;;;17.80;85.20;;;;;;6335551;22;20071;-71
2022/08/11 14:16:27;;;;;;;6.15;1.88;;;17.70;85.00;;;;;;6336337;22;20322;-72
2022/08/11 14:18:59;;;;;;;4.43;1.58;;;17.70;85.00;;;;;;6334399;22;20006;-79
2022/08/11 14:22:09;;;;;;;4.97;1.52;;;17.70;84.90;;;;;;6335945;22;20003;-74
2022/08/11 14:25:18;;;;;;;4.63;1.10;;;17.70;84.90;;;;;;6334129;22;20019;-72
2022/08/11 14:28:24;;;;;;;10.25;1.85;;;17.60;84.70;;;;;;6334717;22;20022;-70
2022/08/11 14:31:30;;;;;;;11.27;1.40;;;17.60;84.80;;;;;;6335551;22;20007;-74
2022/08/11 14:34:36;;;;;;;7.03;1.65;;;17.60;84.80;;;;;;6336050;22;20003;-75
2022/08/11 14:37:17;;;;;;;8.18;1.55;;;17.60;85.00;;;;;;6335356;22;19999;-71
2022/08/11 14:39:47;;;;;;;4.30;1.25;;;17.60;84.90;;;;;;6335325;22;20003;-73
2022/08/11 14:48:02;;;;;;;20.42;8.93;;;17.60;85.00;;;;;;6336281;22;20013;-71
2022/08/11 14:50:32;;;;;;;15.25;9.25;;;17.60;85.40;;;;;;6335451;22;20422;-72
2022/08/11 14:53:03;;;;;;;15.13;7.43;;;17.60;85.80;;;;;;6334606;22;19999;-69
2022/08/11 14:58:24;;;;;;;7.63;4.10;;;17.60;86.10;;;;;;6334835;22;20009;-71
2022/08/11 15:00:58;;;;;;;5.07;3.40;;;17.60;86.20;;;;;;6335546;22;20026;-74
2022/08/11 15:03:27;;;;;;;11.00;2.75;;;17.60;86.10;;;;;;6335098;22;20330;-75
2022/08/11 15:06:03;;;;;;;13.00;2.60;;;17.50;86.10;;;;;;6334659;22;20406;-72
2022/08/11 15:08:55;;;;;;;6.03;2.13;;;17.50;86.20;;;;;;6334133;22;20372;-73
2022/08/11 15:17:06;;;;;;;5.88;1.88;;;17.50;86.70;;;;;;6335133;22;20009;-75
2022/08/11 15:17:06;;;;;;;3.30;1.65;;;17.50;86.60;;;;;;6335395;22;20322;-76
2022/08/11 15:19:34;;;;;;;10.88;2.28;;;17.50;86.70;;;;;;6334050;22;20456;-71
2022/08/11 15:24:46;;;;;;;12.60;4.72;;;17.50;86.90;;;;;;6335352;22;20025;-73
2022/08/11 15:38:24;;;;;;;7.53;3.15;;;17.40;88.10;;;;;;6331362;22;20022;-79
2022/08/11 15:46:48;;;;;;;5.93;3.03;;;17.40;88.10;;;;;;6333819;22;20073;-67
2022/08/11 15:49:23;;;;;;;26.58;7.28;;;17.30;88.10;;;;;;6333481;22;20006;-75
2022/08/11 15:52:00;;;;;;;16.98;7.47;;;17.30;88.10;;;;;;6335281;22;20025;-77
2022/08/11 15:54:30;;;;;;;18.02;6.78;;;17.30;88.30;;;;;;6333368;22;20006;-75
2022/08/11 15:57:00;;;;;;;10.68;5.40;;;17.30;88.20;;;;;;6334435;22;20069;-78
2022/08/11 16:05:13;;;;;;;13.18;5.18;;;17.20;88.20;;;;;;6334500;22;20014;-71
2022/08/11 16:07:45;;;;;;;14.90;5.45;;;17.20;88.40;;;;;;6332915;22;20032;-77
2022/08/11 16:10:20;;;;;;;12.82;5.55;;;17.20;89.10;;;;;;6333450;22;20010;-72
2022/08/11 16:18:55;;;;;;;15.30;4.85;;;17.20;88.40;;;;;;6333938;22;20076;-77
2022/08/11 16:21:29;;;;;;;8.30;3.90;;;17.20;88.50;;;;;;6334689;22;20003;-76
2022/08/11 16:23:59;;;;;;;10.05;4.57;;;17.20;88.40;;;;;;6332904;22;20382;-75
2022/08/11 16:26:28;;;;;;;24.95;8.27;;;17.10;88.40;;;;;;6333285;22;20800;-73
2022/08/11 16:28:57;;;;;;;11.40;4.72;;;17.10;88.50;;;;;;6333173;22;20085;-69
2022/08/11 16:31:24;;;;;;;18.67;5.45;;;17.10;88.80;;;;;;6334634;22;20023;-69
2022/08/11 16:33:53;;;;;;;19.50;10.95;;;17.10;89.10;;;;;;6334139;22;20010;-70
2022/08/11 16:39:09;;;;;;;21.20;9.45;;;17.10;89.40;;;;;;6333540;22;20805;-78
2022/08/11 16:47:15;;;;;;;6.93;3.35;;;17.10;89.90;;;;;;6334531;22;20005;-79
2022/08/11 16:49:49;;;;;;;10.40;4.13;;;17.10;89.80;;;;;;6333594;22;20007;-84
2022/08/11 16:52:15;;;;;;;13.15;4.05;;;17.10;89.80;;;;;;6335206;22;20003;-75
2022/08/11 16:54:45;;;;;;;5.90;2.67;;;17.10;89.90;;;;;;6334384;22;19991;-86
2022/08/11 17:00:23;;;;;;;17.88;5.18;;;17.10;90.00;;;;;;6334077;22;20048;-72
2022/08/11 17:14:48;;;;;;;14.88;4.90;;;17.10;90.20;;;;;;6334486;22;20342;-73
2022/08/11 17:17:22;;;;;;;23.50;12.70;;;17.10;90.30;;;;;;6326711;22;20002;-79
2022/08/11 17:19:53;;;;;;;16.58;8.75;;;17.10;90.30;;;;;;6332836;22;20362;-71
2022/08/11 17:25:05;;;;;;;;;;;17.10;90.40;;;;;;6333689;22;20014;-75
2022/08/11 17:27:34;;;;;;;9.30;4.15;;;17.00;90.40;;;;;;6334549;22;19899;-77
2022/08/11 17:30:10;;;;;;;14.68;5.35;;;17.00;90.50;;;;;;6333732;22;20014;-70
2022/08/11 17:35:33;;;;;;;20.55;5.13;;;17.10;90.60;;;;;;6334266;22;20086;-71
2022/08/11 17:38:11;;;;;;;23.38;5.93;;;17.00;90.60;;;;;;6332117;22;20009;-71
2022/08/11 17:49:10;;;;;;;21.13;5.82;;;17.00;90.70;;;;;;6335724;22;20090;-72
2022/08/11 17:59:57;;;;;;;25.15;8.55;;;17.00;90.90;;;;;;6335651;22;20005;-80
2022/08/11 18:05:32;;;;;;;20.23;5.50;;;17.00;90.90;;;;;;6335574;22;20322;-73
